createdAt,value
2022-10-06T00:01:35.825Z,41.30
2022-10-06T00:04:04.101Z,41.50
2022-10-06T00:06:32.250Z,40.30
2022-10-06T00:09:00.474Z,39.90
2022-10-06T00:11:28.631Z,42.50
2022-10-06T00:13:56.665Z,41.70
2022-10-06T00:16:24.918Z,40.20
2022-10-06T00:18:53.152Z,39.70
2022-10-06T00:21:21.217Z,39.70
2022-10-06T00:23:49.447Z,42.60
2022-10-06T00:26:17.699Z,42.70
2022-10-06T00:28:49.715Z,41.40
2022-10-06T00:31:18.923Z,40.30
2022-10-06T00:33:47.879Z,42.70
2022-10-06T00:36:15.925Z,43.50
2022-10-06T00:38:44.108Z,41.80
2022-10-06T00:41:15.265Z,40.70
2022-10-06T00:43:52.536Z,40.30
2022-10-06T00:46:35.439Z,40.80
2022-10-06T00:49:18.222Z,44.70
2022-10-06T00:52:03.273Z,45.60
2022-10-06T00:54:32.746Z,42.50
2022-10-06T00:57:01.327Z,41.60
2022-10-06T00:59:30.252Z,44.70
2022-10-06T01:02:08.243Z,48.00
2022-10-06T01:04:38.971Z,46.50
2022-10-06T01:07:08.347Z,44.10
2022-10-06T01:09:38.271Z,42.90
2022-10-06T01:12:07.700Z,42.10
2022-10-06T01:14:38.267Z,41.30
2022-10-06T01:17:27.283Z,40.80
2022-10-06T01:19:59.390Z,44.80
2022-10-06T01:22:39.109Z,47.80
2022-10-06T01:25:09.272Z,46.70
2022-10-06T01:27:39.773Z,43.90
2022-10-06T01:30:15.162Z,43.20
2022-10-06T01:32:43.465Z,46.60
2022-10-06T01:35:12.506Z,49.80
2022-10-06T01:37:41.591Z,48.30
2022-10-06T01:40:10.814Z,45.50
2022-10-06T01:42:38.692Z,44.50
2022-10-06T01:45:08.146Z,43.50
2022-10-06T01:47:36.357Z,42.60
2022-10-06T01:50:04.972Z,44.30
2022-10-06T01:52:33.214Z,48.10
2022-10-06T01:55:01.427Z,50.50
2022-10-06T01:57:30.955Z,46.70
2022-10-06T01:59:59.249Z,45.50
2022-10-06T02:02:30.543Z,45.20
2022-10-06T02:05:00.157Z,49.10
2022-10-06T02:07:28.794Z,51.60
2022-10-06T02:09:57.050Z,49.90
2022-10-06T02:12:25.363Z,46.60
2022-10-06T02:14:53.382Z,45.10
2022-10-06T02:17:21.639Z,44.80
2022-10-06T02:19:51.014Z,43.70
2022-10-06T02:22:19.168Z,43.30
2022-10-06T02:24:49.374Z,46.20
2022-10-06T02:27:17.525Z,49.60
2022-10-06T02:29:45.822Z,51.40
2022-10-06T02:32:15.836Z,46.40
2022-10-06T02:34:44.097Z,45.50
2022-10-06T02:37:13.924Z,46.10
2022-10-06T02:39:42.215Z,49.80
2022-10-06T02:42:10.291Z,52.30
2022-10-06T02:44:40.353Z,51.30
2022-10-06T02:47:12.170Z,47.90
2022-10-06T02:49:40.685Z,46.60
2022-10-06T02:52:08.867Z,45.60
2022-10-06T02:54:37.137Z,44.40
2022-10-06T02:59:24.546Z,47.00
2022-10-06T03:01:52.733Z,49.90
2022-10-06T03:04:20.963Z,48.90
2022-10-06T03:06:50.005Z,45.90
2022-10-06T03:09:20.958Z,45.00
2022-10-06T03:11:49.412Z,44.00
2022-10-06T03:14:25.283Z,43.30
2022-10-06T03:16:53.772Z,43.30
2022-10-06T03:19:26.055Z,47.80
2022-10-06T03:21:55.078Z,50.40
2022-10-06T03:24:29.303Z,52.20
2022-10-06T03:26:59.956Z,47.10
2022-10-06T03:29:28.337Z,45.90
2022-10-06T03:31:58.696Z,46.20
2022-10-06T03:34:27.480Z,51.10
2022-10-06T03:36:57.767Z,53.30
2022-10-06T03:39:27.919Z,54.60
2022-10-06T03:41:56.145Z,51.10
2022-10-06T03:44:24.770Z,48.40
2022-10-06T03:46:53.044Z,47.00
2022-10-06T03:49:21.225Z,46.20
2022-10-06T03:51:49.420Z,45.20
2022-10-06T03:54:22.392Z,44.30
2022-10-06T03:56:54.131Z,47.50
2022-10-06T03:59:22.659Z,50.60
2022-10-06T04:01:52.042Z,52.80
2022-10-06T04:04:35.161Z,53.70
2022-10-06T04:07:13.266Z,48.20
2022-10-06T04:09:41.770Z,47.30
2022-10-06T04:12:11.878Z,48.40
2022-10-06T04:14:42.280Z,52.80
2022-10-06T04:17:11.717Z,54.90
2022-10-06T04:19:41.478Z,53.10
2022-10-06T04:22:09.659Z,49.50
2022-10-06T04:24:38.222Z,48.50
2022-10-06T04:27:06.452Z,47.30
2022-10-06T04:29:34.723Z,46.30
2022-10-06T04:32:03.496Z,45.50
2022-10-06T04:34:35.212Z,47.10
2022-10-06T04:37:04.481Z,51.10
2022-10-06T04:39:32.744Z,53.40
2022-10-06T04:42:01.150Z,54.80
2022-10-06T04:44:32.532Z,52.30
2022-10-06T04:47:03.036Z,48.90
2022-10-06T04:49:31.737Z,48.00
2022-10-06T04:52:00.110Z,52.10
2022-10-06T04:54:33.853Z,55.10
2022-10-06T04:57:05.594Z,56.50
2022-10-06T05:00:30.566Z,54.30
2022-10-06T05:02:58.935Z,55.80
2022-10-06T05:05:27.177Z,54.20
2022-10-06T05:07:57.280Z,50.50
2022-10-06T05:10:25.641Z,49.10
2022-10-06T05:12:53.747Z,48.20
2022-10-06T05:15:22.119Z,47.30
2022-10-06T05:17:50.284Z,46.10
2022-10-06T05:20:18.503Z,46.60
2022-10-06T05:22:46.945Z,50.80
2022-10-06T05:25:15.071Z,53.20
2022-10-06T05:27:43.271Z,54.90
2022-10-06T05:30:12.246Z,55.80
2022-10-06T05:32:40.373Z,54.40
2022-10-06T05:35:08.767Z,50.20
2022-10-06T05:37:37.117Z,49.30
2022-10-06T05:40:05.581Z,53.20
2022-10-06T05:42:33.980Z,56.20
2022-10-06T05:45:02.130Z,57.70
2022-10-06T05:47:31.070Z,58.10
2022-10-06T05:49:59.507Z,54.60
2022-10-06T05:52:27.619Z,51.30
2022-10-06T05:54:55.974Z,49.80
2022-10-06T05:57:24.183Z,48.60
2022-10-06T05:59:52.812Z,47.90
2022-10-06T06:02:20.936Z,46.90
2022-10-06T06:04:49.258Z,46.20
2022-10-06T06:07:17.908Z,48.50
2022-10-06T06:09:47.455Z,51.80
2022-10-06T06:12:15.614Z,54.40
2022-10-06T06:14:48.663Z,55.80
2022-10-06T06:17:21.151Z,56.40
2022-10-06T06:19:49.339Z,56.60
2022-10-06T06:22:17.512Z,51.30
2022-10-06T06:24:47.850Z,50.00
2022-10-06T06:27:16.578Z,51.50
2022-10-06T06:29:45.358Z,55.60
2022-10-06T06:32:13.559Z,57.70
2022-10-06T06:34:42.041Z,58.40
2022-10-06T06:37:15.039Z,58.40
2022-10-06T06:39:46.831Z,53.80
2022-10-06T06:42:15.286Z,51.50
2022-10-06T06:44:48.982Z,50.10
2022-10-06T06:47:26.681Z,49.20
2022-10-06T06:49:56.942Z,48.10
2022-10-06T06:52:26.423Z,47.10
2022-10-06T06:54:55.431Z,47.00
2022-10-06T06:57:23.638Z,50.90
2022-10-06T06:59:53.741Z,53.60
2022-10-06T07:02:22.010Z,55.40
2022-10-06T07:04:50.216Z,56.50
2022-10-06T07:07:20.784Z,57.00
2022-10-06T07:09:49.154Z,55.30
2022-10-06T07:12:19.499Z,51.00
2022-10-06T07:14:53.055Z,49.50
2022-10-06T07:17:21.420Z,53.00
2022-10-06T07:19:51.120Z,56.60
2022-10-06T07:22:23.075Z,58.40
2022-10-06T07:24:51.409Z,58.80
2022-10-06T07:27:19.552Z,58.40
2022-10-06T07:29:47.976Z,53.20
2022-10-06T07:32:16.230Z,51.20
2022-10-06T07:34:44.438Z,50.40
2022-10-06T07:37:12.733Z,49.00
2022-10-06T07:39:41.099Z,48.00
2022-10-06T07:42:10.337Z,47.20
2022-10-06T07:44:38.499Z,47.30
2022-10-06T07:47:07.483Z,51.30
2022-10-06T07:49:56.571Z,53.90
2022-10-06T07:52:25.802Z,56.00
2022-10-06T07:54:54.304Z,56.80
2022-10-06T07:57:38.816Z,57.30
2022-10-06T08:00:07.601Z,52.80
2022-10-06T08:02:44.315Z,50.60
2022-10-06T08:05:12.674Z,50.90
2022-10-06T08:07:41.937Z,56.20
2022-10-06T08:10:10.502Z,58.50
2022-10-06T08:12:39.191Z,59.60
2022-10-06T08:15:08.400Z,59.50
2022-10-06T08:17:37.648Z,55.00
2022-10-06T08:20:08.591Z,52.80
2022-10-06T08:22:37.740Z,51.50
2022-10-06T08:25:10.513Z,50.60
2022-10-06T08:27:39.140Z,49.60
2022-10-06T08:30:08.269Z,48.50
2022-10-06T08:32:36.456Z,47.80
2022-10-06T08:35:05.163Z,47.20
2022-10-06T08:37:33.327Z,50.60
2022-10-06T08:40:01.634Z,53.70
2022-10-06T08:42:43.920Z,56.30
2022-10-06T08:45:20.323Z,57.80
2022-10-06T08:47:58.881Z,52.80
2022-10-06T08:50:28.736Z,51.70
2022-10-06T08:53:17.139Z,53.50
2022-10-06T08:56:01.135Z,57.90
2022-10-06T08:59:03.307Z,59.80
2022-10-06T09:01:39.037Z,61.10
2022-10-06T09:04:07.969Z,57.60
2022-10-06T09:06:39.128Z,54.70
2022-10-06T09:09:24.105Z,52.80
2022-10-06T09:12:01.708Z,51.20
2022-10-06T09:14:39.515Z,50.40
2022-10-06T09:17:13.728Z,49.60
2022-10-06T09:19:52.207Z,48.90
2022-10-06T09:22:23.423Z,50.30
2022-10-06T09:25:00.269Z,54.20
2022-10-06T09:27:33.126Z,56.80
2022-10-06T09:30:03.135Z,58.00
2022-10-06T09:32:32.873Z,52.50
2022-10-06T09:35:01.150Z,51.40
2022-10-06T09:37:29.691Z,53.30
2022-10-06T09:39:58.194Z,57.80
2022-10-06T09:42:29.702Z,59.90
2022-10-06T09:45:26.105Z,61.40
2022-10-06T09:47:54.356Z,56.80
2022-10-06T09:50:25.496Z,54.50
2022-10-06T09:52:59.812Z,53.10
2022-10-06T09:55:38.839Z,51.80
2022-10-06T09:58:33.158Z,50.90
2022-10-06T10:01:12.627Z,50.40
2022-10-06T10:06:39.797Z,50.00
2022-10-06T10:09:21.918Z,54.00
2022-10-06T10:12:27.377Z,54.80
2022-10-06T10:15:01.664Z,50.80
2022-10-06T10:17:36.079Z,50.60
2022-10-06T10:20:18.532Z,54.10
2022-10-06T10:22:48.523Z,58.20
2022-10-06T10:25:55.021Z,60.10
2022-10-06T10:28:42.085Z,61.40
2022-10-06T10:31:34.207Z,55.20
2022-10-06T10:34:24.015Z,53.30
2022-10-06T10:37:33.583Z,52.30
2022-10-06T10:40:06.847Z,51.00
2022-10-06T10:42:40.889Z,49.90
2022-10-06T10:45:19.188Z,49.50
2022-10-06T10:47:49.860Z,51.10
2022-10-06T10:50:20.960Z,55.20
2022-10-06T10:52:53.029Z,58.50
2022-10-06T10:55:57.354Z,54.00
2022-10-06T10:58:31.697Z,51.90
2022-10-06T11:01:09.004Z,52.80
2022-10-06T11:03:37.524Z,57.80
2022-10-06T11:06:42.390Z,59.50
2022-10-06T11:09:23.284Z,54.30
2022-10-06T11:12:09.495Z,52.60
2022-10-06T11:14:56.605Z,51.60
2022-10-06T11:17:29.023Z,50.40
2022-10-06T11:20:26.068Z,50.40
2022-10-06T11:23:17.021Z,49.40
2022-10-06T11:26:03.379Z,53.70
2022-10-06T11:28:53.637Z,57.00
2022-10-06T11:31:31.067Z,59.10
2022-10-06T11:34:04.491Z,60.40
2022-10-06T11:36:53.979Z,58.80
2022-10-06T11:39:40.624Z,53.90
2022-10-06T11:42:35.101Z,52.90
2022-10-06T11:45:06.233Z,58.10
2022-10-06T11:47:57.649Z,60.60
2022-10-06T11:50:41.945Z,62.20
2022-10-06T11:53:40.154Z,55.90
2022-10-06T11:56:20.673Z,53.60
2022-10-06T11:58:51.908Z,51.90
2022-10-06T12:01:32.800Z,50.80
2022-10-06T12:04:10.364Z,49.70
2022-10-06T12:06:44.710Z,49.20
2022-10-06T12:09:33.914Z,52.30
2022-10-06T12:12:16.487Z,56.60
2022-10-06T12:18:15.119Z,60.00
2022-10-06T12:21:05.873Z,58.00
2022-10-06T12:23:47.553Z,53.40
2022-10-06T12:26:35.548Z,52.20
2022-10-06T12:29:22.190Z,56.90
2022-10-06T12:32:09.394Z,59.50
2022-10-06T12:34:40.571Z,61.30
2022-10-06T12:37:34.152Z,62.20
2022-10-06T12:40:39.437Z,57.10
2022-10-06T12:43:32.007Z,54.30
2022-10-06T12:46:02.288Z,52.50
2022-10-06T12:48:43.054Z,51.40
2022-10-06T12:51:14.352Z,50.20
2022-10-06T12:54:05.319Z,49.60
2022-10-06T12:56:37.127Z,53.20
2022-10-06T12:59:36.232Z,56.00
2022-10-06T13:02:18.194Z,58.00
2022-10-06T13:04:49.086Z,59.40
2022-10-06T13:07:28.630Z,59.80
2022-10-06T13:10:16.760Z,54.40
2022-10-06T13:12:47.077Z,52.10
2022-10-06T13:15:21.835Z,53.00
2022-10-06T13:18:08.611Z,57.80
2022-10-06T13:20:48.712Z,60.20
2022-10-06T13:23:38.213Z,61.20
2022-10-06T13:26:16.359Z,61.50
2022-10-06T13:28:44.492Z,57.20
2022-10-06T13:31:15.526Z,54.10
2022-10-06T13:33:46.062Z,53.10
2022-10-06T13:36:15.248Z,51.20
2022-10-06T13:38:43.447Z,50.50
2022-10-06T13:41:14.616Z,49.30
2022-10-06T13:43:47.549Z,48.50
2022-10-06T13:46:19.884Z,51.90
2022-10-06T13:48:55.629Z,54.80
2022-10-06T13:51:29.806Z,56.70
2022-10-06T13:54:00.973Z,57.80
2022-10-06T13:56:34.174Z,58.30
2022-10-06T13:59:25.813Z,57.30
2022-10-06T14:01:54.956Z,52.50
2022-10-06T14:04:23.128Z,51.00
2022-10-06T14:06:59.124Z,55.40
2022-10-06T14:09:32.586Z,58.50
2022-10-06T14:12:19.060Z,60.20
2022-10-06T14:14:53.548Z,61.10
2022-10-06T14:17:25.512Z,60.40
2022-10-06T14:19:54.023Z,55.00
2022-10-06T14:22:36.401Z,53.00
2022-10-06T14:25:14.536Z,51.70
2022-10-06T14:27:42.857Z,50.40
2022-10-06T14:30:12.003Z,49.60
2022-10-06T14:32:40.291Z,48.30
2022-10-06T14:35:12.177Z,47.80
2022-10-06T14:37:40.464Z,50.80
2022-10-06T14:40:12.137Z,54.10
2022-10-06T14:42:40.959Z,56.00
2022-10-06T14:45:09.112Z,57.60
2022-10-06T14:47:37.296Z,58.30
2022-10-06T14:50:05.906Z,56.10
2022-10-06T14:52:33.918Z,51.90
2022-10-06T14:55:02.160Z,50.90
2022-10-06T14:57:30.627Z,54.70
2022-10-06T14:59:59.226Z,58.50
2022-10-06T15:02:27.513Z,60.20
2022-10-06T15:04:55.840Z,60.90
2022-10-06T15:07:24.311Z,56.70
2022-10-06T15:09:52.492Z,54.10
2022-10-06T15:12:20.921Z,52.40
2022-10-06T15:14:49.196Z,51.50
2022-10-06T15:17:17.499Z,50.30
2022-10-06T15:19:45.820Z,49.30
2022-10-06T15:22:13.986Z,48.70
2022-10-06T15:24:42.740Z,48.60
2022-10-06T15:27:11.128Z,52.30
2022-10-06T15:29:39.818Z,55.10
2022-10-06T15:32:08.356Z,57.00
2022-10-06T15:34:37.306Z,58.50
2022-10-06T15:37:06.776Z,58.00
2022-10-06T15:39:38.553Z,53.50
2022-10-06T15:42:07.724Z,51.80
2022-10-06T15:44:36.482Z,54.10
2022-10-06T15:47:08.346Z,58.50
2022-10-06T15:49:36.912Z,60.40
2022-10-06T15:52:05.920Z,61.30
2022-10-06T15:54:36.574Z,61.80
2022-10-06T15:57:07.357Z,57.30
2022-10-06T15:59:36.591Z,54.70
2022-10-06T16:02:07.057Z,53.10
2022-10-06T16:04:38.563Z,51.70
2022-10-06T16:07:08.235Z,50.70
2022-10-06T16:09:43.053Z,49.70
2022-10-06T16:12:14.658Z,49.10
2022-10-06T16:14:43.542Z,50.10
2022-10-06T16:17:12.852Z,54.70
2022-10-06T16:19:41.547Z,57.30
2022-10-06T16:22:13.249Z,58.80
2022-10-06T16:24:41.502Z,57.10
2022-10-06T16:27:16.718Z,53.90
2022-10-06T16:29:44.905Z,51.90
2022-10-06T16:32:12.983Z,56.40
2022-10-06T16:34:41.317Z,59.10
2022-10-06T16:37:09.527Z,61.10
2022-10-06T16:39:37.761Z,56.40
2022-10-06T16:42:05.970Z,54.10
2022-10-06T16:44:34.018Z,53.00
2022-10-06T16:47:02.499Z,51.80
2022-10-06T16:49:30.826Z,50.70
2022-10-06T16:51:58.969Z,49.60
2022-10-06T16:54:27.511Z,49.70
2022-10-06T16:56:55.680Z,51.90
2022-10-06T16:59:25.331Z,55.70
2022-10-06T17:01:53.615Z,54.10
2022-10-06T17:04:24.117Z,51.90
2022-10-06T17:06:55.075Z,50.50
2022-10-06T17:09:28.397Z,54.40
2022-10-06T17:12:01.940Z,57.80
2022-10-06T17:14:32.263Z,56.60
2022-10-06T17:17:00.850Z,53.20
2022-10-06T17:19:30.508Z,51.50
2022-10-06T17:21:59.965Z,50.20
2022-10-06T17:24:29.404Z,49.30
2022-10-06T17:26:58.777Z,48.60
2022-10-06T17:29:27.276Z,50.40
2022-10-06T17:31:58.367Z,54.30
2022-10-06T17:34:31.846Z,56.50
2022-10-06T17:37:02.951Z,58.40
2022-10-06T17:39:31.270Z,59.70
2022-10-06T17:41:59.363Z,57.30
2022-10-06T17:44:27.756Z,54.30
2022-10-06T17:47:00.201Z,52.50
2022-10-06T17:49:28.903Z,56.50
2022-10-06T17:51:56.757Z,59.60
2022-10-06T17:54:26.361Z,61.50
2022-10-06T17:56:57.230Z,62.60
2022-10-06T17:59:30.608Z,58.10
2022-10-06T18:02:01.432Z,55.40
2022-10-06T18:04:30.169Z,53.80
2022-10-06T18:06:57.999Z,52.60
2022-10-06T18:09:26.278Z,51.40
2022-10-06T18:11:54.390Z,50.20
2022-10-06T18:14:24.348Z,49.60
2022-10-06T18:16:56.269Z,52.80
2022-10-06T18:19:35.358Z,55.50
2022-10-06T18:22:09.683Z,57.90
2022-10-06T18:24:38.158Z,59.50
2022-10-06T18:27:06.720Z,60.50
2022-10-06T18:29:35.546Z,56.90
2022-10-06T18:32:51.106Z,54.50
2022-10-06T18:37:40.935Z,58.50
2022-10-06T18:40:09.487Z,61.00
2022-10-06T18:42:37.944Z,62.40
2022-10-06T18:45:07.134Z,62.90
2022-10-06T18:47:35.400Z,57.90
2022-10-06T18:50:03.522Z,55.50
2022-10-06T18:52:31.675Z,54.00
2022-10-06T18:54:59.906Z,52.90
2022-10-06T18:57:28.108Z,51.40
2022-10-06T18:59:56.565Z,50.50
2022-10-06T19:02:24.788Z,50.60
2022-10-06T19:04:52.866Z,54.30
2022-10-06T19:07:21.227Z,57.40
2022-10-06T19:09:49.539Z,59.10
2022-10-06T19:12:18.518Z,60.00
2022-10-06T19:14:46.599Z,56.00
2022-10-06T19:17:16.571Z,52.90
2022-10-06T19:19:46.784Z,52.40
2022-10-06T19:22:15.476Z,56.70
2022-10-06T19:24:45.382Z,59.30
2022-10-06T19:27:16.914Z,61.10
2022-10-06T19:29:46.566Z,62.00
2022-10-06T19:32:17.773Z,62.20
2022-10-06T19:34:46.942Z,55.90
2022-10-06T19:37:15.925Z,54.40
2022-10-06T19:39:46.361Z,52.80
2022-10-06T19:42:18.783Z,51.70
2022-10-06T19:44:47.408Z,50.50
2022-10-06T19:47:16.249Z,49.60
2022-10-06T19:49:44.690Z,50.30
2022-10-06T19:52:15.332Z,54.10
2022-10-06T19:54:43.512Z,56.90
2022-10-06T19:57:11.670Z,58.60
2022-10-06T19:59:40.685Z,59.60
2022-10-06T20:02:09.173Z,60.20
2022-10-06T20:04:37.466Z,56.80
2022-10-06T20:07:05.875Z,54.20
2022-10-06T20:09:34.357Z,52.30
2022-10-06T20:12:02.557Z,56.50
2022-10-06T20:14:31.495Z,59.60
2022-10-06T20:16:59.768Z,61.00
2022-10-06T20:19:28.199Z,61.70
2022-10-06T20:21:56.506Z,62.00
2022-10-06T20:24:25.095Z,57.10
2022-10-06T20:26:53.899Z,54.90
2022-10-06T20:29:24.914Z,53.70
2022-10-06T20:31:55.298Z,52.10
2022-10-06T20:34:26.132Z,50.90
2022-10-06T20:36:56.254Z,50.00
2022-10-06T20:39:24.691Z,49.10
2022-10-06T20:41:53.171Z,52.00
2022-10-06T20:44:21.255Z,55.30
2022-10-06T20:46:49.578Z,57.20
2022-10-06T20:49:17.797Z,58.40
2022-10-06T20:51:49.039Z,59.00
2022-10-06T20:54:24.582Z,59.80
2022-10-06T20:56:54.304Z,56.60
2022-10-06T20:59:23.934Z,53.00
2022-10-06T21:01:52.468Z,52.30
2022-10-06T21:04:21.850Z,57.10
2022-10-06T21:06:50.235Z,59.50
2022-10-06T21:09:19.518Z,61.50
2022-10-06T21:11:48.898Z,62.30
2022-10-06T21:14:17.756Z,61.90
2022-10-06T21:16:47.408Z,59.10
2022-10-06T21:19:19.701Z,55.20
2022-10-06T21:21:49.387Z,53.50
2022-10-06T21:24:17.721Z,52.10
2022-10-06T21:26:46.129Z,50.90
2022-10-06T21:29:14.549Z,49.70
2022-10-06T21:31:42.902Z,48.80
2022-10-06T21:34:11.330Z,51.60
2022-10-06T21:36:39.619Z,55.00
2022-10-06T21:39:08.074Z,57.10
2022-10-06T21:41:37.926Z,58.60
2022-10-06T21:44:17.164Z,59.30
2022-10-06T21:46:50.158Z,59.70
2022-10-06T21:49:20.399Z,59.40
2022-10-06T21:51:51.384Z,54.30
2022-10-06T21:54:20.631Z,52.60
2022-10-06T21:56:48.970Z,54.80
2022-10-06T21:59:17.669Z,58.40
2022-10-06T22:01:47.210Z,60.60
2022-10-06T22:04:16.029Z,61.60
2022-10-06T22:06:45.816Z,61.70
2022-10-06T22:09:17.114Z,61.60
2022-10-06T22:11:45.680Z,56.00
2022-10-06T22:14:16.231Z,53.70
2022-10-06T22:16:44.554Z,52.20
2022-10-06T22:19:14.436Z,51.60
2022-10-06T22:21:45.630Z,50.50
2022-10-06T22:24:17.109Z,49.60
2022-10-06T22:26:46.157Z,51.60
2022-10-06T22:29:15.816Z,55.20
2022-10-06T22:31:46.537Z,57.60
2022-10-06T22:34:17.546Z,58.80
2022-10-06T22:36:45.767Z,59.40
2022-10-06T22:39:13.873Z,59.70
2022-10-06T22:41:42.165Z,59.80
2022-10-06T22:44:10.326Z,54.60
2022-10-06T22:46:39.065Z,52.90
2022-10-06T22:49:07.546Z,52.30
2022-10-06T22:51:36.211Z,57.70
2022-10-06T22:54:04.764Z,59.70
2022-10-06T22:56:33.959Z,61.20
2022-10-06T22:59:02.579Z,61.70
2022-10-06T23:01:31.427Z,61.60
2022-10-06T23:03:59.718Z,59.20
2022-10-06T23:06:28.316Z,55.40
2022-10-06T23:08:56.553Z,54.00
2022-10-06T23:11:24.717Z,51.90
2022-10-06T23:13:52.913Z,51.50
2022-10-06T23:16:21.857Z,50.40
2022-10-06T23:18:50.158Z,53.00
2022-10-06T23:21:21.013Z,56.10
2022-10-06T23:23:51.916Z,58.10
2022-10-06T23:26:20.908Z,59.60
2022-10-06T23:28:53.140Z,60.30
2022-10-06T23:31:21.399Z,60.60
2022-10-06T23:33:49.742Z,60.80
2022-10-06T23:36:18.687Z,56.70
2022-10-06T23:38:47.622Z,53.80
2022-10-06T23:41:15.920Z,52.50
2022-10-06T23:43:44.741Z,51.60
2022-10-06T23:46:12.664Z,50.60
2022-10-06T23:48:40.994Z,54.00
2022-10-06T23:51:14.704Z,57.00
2022-10-06T23:53:43.539Z,58.80
2022-10-06T23:56:12.138Z,59.90
2022-10-06T23:58:40.843Z,60.40
